Time;durP1;ratioP1;P1;durP2;ratioP2;P2;SDS_P1;SDS_P2;PMS_P1;PMS_P2;Temp;Humidity;BMP_temperature;BMP_pressure;BME280_temperature;BME280_humidity;BME280_pressure;Samples;Min_cycle;Max_cycle;Signal;HPM_P1;HPM_P2
2023/04/05 00:01:24;;;;;;;;;12.00;10.00;;;;;10.19;55.86;102130.44;5119864;27;45359;-72
2023/04/05 00:03:53;;;;;;;;;15.00;13.50;;;;;10.18;55.91;102122.47;5098994;27;46693;-72
2023/04/05 00:06:25;;;;;;;;;11.25;11.25;;;;;10.14;56.04;102124.09;5111876;27;45510;-71
2023/04/05 00:08:54;;;;;;;;;19.00;14.50;;;;;10.09;56.30;102119.50;5111800;27;45267;-72
2023/04/05 00:11:21;;;;;;;;;15.00;13.75;;;;;10.10;56.40;102119.56;5119786;27;45524;-72
2023/04/05 00:13:46;;;;;;;;;19.00;13.75;;;;;10.08;56.53;102126.53;5112297;27;46605;-72
2023/04/05 00:16:11;;;;;;;;;18.50;14.00;;;;;10.03;56.92;102119.31;5107057;27;45371;-72
2023/04/05 00:18:37;;;;;;;;;20.00;15.25;;;;;10.06;56.84;102115.00;5107342;27;45324;-72
2023/04/05 00:21:02;;;;;;;;;16.50;14.00;;;;;10.05;57.25;102122.88;5109681;27;45425;-73
2023/04/05 00:23:28;;;;;;;;;20.25;16.75;;;;;10.06;57.38;102119.41;5107713;27;46281;-72
2023/04/05 00:25:53;;;;;;;;;29.00;21.75;;;;;10.04;57.53;102113.19;5112947;27;68107;-72
2023/04/05 00:28:19;;;;;;;;;23.75;20.00;;;;;10.09;57.74;102112.50;5100472;27;45679;-72
2023/04/05 00:30:44;;;;;;;;;24.25;20.00;;;;;10.09;57.99;102114.22;5116295;27;45639;-72
2023/04/05 00:33:12;;;;;;;;;26.75;18.75;;;;;10.11;58.14;102118.69;5118940;27;46434;-73
2023/04/05 00:35:37;;;;;;;;;22.00;19.00;;;;;10.09;58.37;102116.88;5097495;27;45414;-72
2023/04/05 00:38:03;;;;;;;;;26.25;23.00;;;;;10.05;58.38;102115.88;5115232;27;45377;-72
2023/04/05 00:40:28;;;;;;;;;30.00;21.25;;;;;9.96;58.46;102113.81;5109203;27;60723;-72
2023/04/05 00:42:53;;;;;;;;;24.50;20.50;;;;;9.89;58.67;102100.34;5116733;27;60041;-72
2023/04/05 00:45:19;;;;;;;;;25.00;21.25;;;;;9.87;58.83;102110.88;5118765;27;45481;-72
2023/04/05 00:47:44;;;;;;;;;27.50;21.75;;;;;9.85;59.12;102098.44;5118315;27;45434;-73
2023/04/05 00:50:11;;;;;;;;;29.25;22.25;;;;;9.79;59.53;102101.78;5102186;27;45532;-72
2023/04/05 00:52:42;;;;;;;;;25.00;21.50;;;;;9.77;59.38;102103.47;5109285;27;46465;-72
2023/04/05 00:55:09;;;;;;;;;23.00;21.75;;;;;9.76;59.64;102106.97;5104826;27;45432;-72
2023/04/05 00:57:37;;;;;;;;;19.25;15.25;;;;;9.69;60.14;102103.22;5117825;27;45282;-72
2023/04/05 01:00:08;;;;;;;;;22.25;17.25;;;;;9.65;60.29;102101.31;5114865;27;45584;-73
2023/04/05 01:02:38;;;;;;;;;30.75;22.75;;;;;9.64;60.70;102104.81;5091338;27;45490;-72
2023/04/05 01:05:10;;;;;;;;;29.00;27.00;;;;;9.60;60.67;102094.09;5097805;27;45463;-72
2023/04/05 01:07:39;;;;;;;;;20.25;18.75;;;;;9.58;60.97;102101.94;5099900;27;45608;-72
2023/04/05 01:10:09;;;;;;;;;30.50;22.00;;;;;9.56;60.91;102089.53;5119114;27;45307;-72
2023/04/05 01:12:36;;;;;;;;;28.00;21.50;;;;;9.56;61.08;102085.16;5118691;27;45609;-72
2023/04/05 01:15:01;;;;;;;;;26.00;21.75;;;;;9.56;61.34;102089.53;5095513;27;45338;-72
2023/04/05 01:17:35;;;;;;;;;22.50;19.75;;;;;9.56;61.45;102086.91;5116946;27;64683;-72
2023/04/05 01:20:12;;;;;;;;;29.50;19.25;;;;;9.56;61.46;102082.53;5118560;27;45419;-73
2023/04/05 01:22:55;;;;;;;;;28.00;22.50;;;;;9.52;61.55;102080.63;5111510;27;46499;-73
2023/04/05 01:25:35;;;;;;;;;28.00;23.50;;;;;9.49;61.90;102080.53;5111200;27;45534;-72
2023/04/05 01:28:18;;;;;;;;;19.25;17.75;;;;;9.45;62.09;102076.88;5089033;27;45481;-72
2023/04/05 01:30:51;;;;;;;;;26.75;19.00;;;;;9.44;62.37;102084.75;5083196;27;45307;-72
2023/04/05 01:33:35;;;;;;;;;27.00;22.25;;;;;9.39;62.46;102071.38;5086108;27;46437;-72
2023/04/05 01:36:10;;;;;;;;;23.75;17.00;;;;;9.36;62.68;102066.00;5111566;27;45451;-73
2023/04/05 01:38:38;;;;;;;;;17.75;17.75;;;;;9.34;62.58;102066.78;5117470;27;45767;-72
2023/04/05 01:41:03;;;;;;;;;17.75;17.75;;;;;9.29;62.73;102063.09;5098199;27;45414;-72
2023/04/05 01:43:29;;;;;;;;;25.00;17.00;;;;;9.24;62.71;102065.56;5116780;27;71507;-72
2023/04/05 01:45:54;;;;;;;;;30.25;20.75;;;;;9.21;63.24;102057.53;5114512;27;45307;-72
2023/04/05 01:48:19;;;;;;;;;19.75;17.25;;;;;9.20;63.07;102061.00;5095063;27;67469;-72
2023/04/05 01:50:45;;;;;;;;;18.50;18.50;;;;;9.18;63.35;102062.72;5110813;27;45297;-72
2023/04/05 01:53:10;;;;;;;;;25.00;19.00;;;;;9.15;63.63;102058.22;5106925;27;46467;-72
2023/04/05 01:55:36;;;;;;;;;23.50;19.00;;;;;9.13;63.62;102061.66;5106365;27;47013;-72
2023/04/05 01:58:01;;;;;;;;;16.50;15.25;;;;;9.11;63.97;102058.06;5104116;27;45503;-72
2023/04/05 02:00:26;;;;;;;;;20.25;17.50;;;;;9.08;64.10;102064.09;5102032;27;60714;-73
2023/04/05 02:02:52;;;;;;;;;17.00;17.00;;;;;9.06;64.16;102057.00;5101290;27;45629;-73
2023/04/05 02:05:17;;;;;;;;;21.25;18.00;;;;;9.02;64.18;102049.81;5100865;27;45357;-73
2023/04/05 02:07:42;;;;;;;;;21.00;16.75;;;;;9.02;64.51;102057.72;5100264;27;63965;-72
2023/04/05 02:10:08;;;;;;;;;32.50;21.00;;;;;9.02;64.48;102055.97;5117201;27;55423;-72
2023/04/05 02:12:33;;;;;;;;;18.00;17.00;;;;;9.01;64.50;102054.19;5117755;27;46353;-73
2023/04/05 02:14:59;;;;;;;;;23.25;20.25;;;;;8.99;64.49;102047.97;5114789;27;68622;-72
2023/04/05 02:17:32;;;;;;;;;22.75;18.25;;;;;8.98;64.68;102040.91;5117586;27;45262;-72
2023/04/05 02:20:01;;;;;;;;;21.00;15.75;;;;;8.96;64.66;102045.22;5117948;27;45457;-72
2023/04/05 02:22:26;;;;;;;;;22.00;17.25;;;;;8.96;64.76;102049.59;5100104;27;45543;-72
2023/04/05 02:24:52;;;;;;;;;19.25;15.25;;;;;8.93;64.89;102038.09;5107038;27;45398;-72
2023/04/05 02:27:17;;;;;;;;;20.50;17.00;;;;;8.93;64.91;102042.47;5098559;27;65160;-72
2023/04/05 02:29:42;;;;;;;;;30.00;20.25;;;;;8.91;65.02;102028.34;5111875;27;55127;-73
2023/04/05 02:32:08;;;;;;;;;24.75;15.50;;;;;8.88;64.94;102037.03;5115056;27;46045;-72
2023/04/05 02:34:34;;;;;;;;;24.00;19.00;;;;;8.86;65.08;102028.19;5114907;27;66615;-73
2023/04/05 02:37:00;;;;;;;;;21.75;17.00;;;;;8.88;65.42;102036.13;5110813;27;45314;-73
2023/04/05 02:39:27;;;;;;;;;17.25;14.50;;;;;8.87;65.35;102029.06;5113513;27;45495;-71
2023/04/05 02:41:53;;;;;;;;;17.25;15.25;;;;;8.87;65.35;102035.22;5108593;27;46618;-72
2023/04/05 02:44:18;;;;;;;;;22.00;15.00;;;;;8.87;65.31;102026.44;5110569;27;45367;-72
2023/04/05 02:46:44;;;;;;;;;28.50;18.25;;;;;8.87;65.19;102021.16;5105673;27;65735;-72
2023/04/05 02:49:09;;;;;;;;;17.25;13.25;;;;;8.87;65.29;102016.78;5106189;27;45485;-73
2023/04/05 02:51:34;;;;;;;;;25.75;18.25;;;;;8.87;65.23;102022.06;5104114;27;46261;-72
2023/04/05 02:54:01;;;;;;;;;26.00;20.25;;;;;8.84;65.21;102016.69;5110708;27;45412;-72
2023/04/05 02:56:28;;;;;;;;;20.25;18.00;;;;;8.82;65.38;102020.09;5116119;27;45451;-72
2023/04/05 02:58:53;;;;;;;;;18.25;17.75;;;;;8.77;65.10;102014.66;5106439;27;45352;-72
2023/04/05 03:01:19;;;;;;;;;20.75;15.50;;;;;8.73;65.49;102025.91;5098012;27;67367;-72
2023/04/05 03:03:44;;;;;;;;;17.75;15.75;;;;;8.71;65.60;102017.06;5107055;27;45420;-72
2023/04/05 03:06:10;;;;;;;;;20.00;16.00;;;;;8.68;65.72;102018.69;5113007;27;45293;-72
2023/04/05 03:08:42;;;;;;;;;20.25;16.25;;;;;8.66;65.97;102016.00;5116251;27;45476;-71
2023/04/05 03:11:08;;;;;;;;;20.50;15.75;;;;;8.63;65.88;102013.28;5116867;27;46430;-72
2023/04/05 03:13:34;;;;;;;;;15.50;14.75;;;;;8.55;66.01;102015.59;5116916;27;45369;-71
2023/04/05 03:16:00;;;;;;;;;20.25;15.75;;;;;8.56;65.73;102012.13;5116938;27;45334;-71
2023/04/05 03:18:26;;;;;;;;;18.75;14.25;;;;;8.52;65.96;102006.66;5116797;27;45550;-73
2023/04/05 03:20:58;;;;;;;;;19.75;15.50;;;;;8.51;65.83;102010.16;5112687;27;45694;-72
2023/04/05 03:23:27;;;;;;;;;15.75;12.00;;;;;8.44;66.23;102009.03;5105057;27;45395;-72
2023/04/05 03:25:54;;;;;;;;;21.25;19.75;;;;;8.45;66.22;102017.81;5108788;27;45512;-72
2023/04/05 03:28:19;;;;;;;;;14.50;12.75;;;;;8.42;66.16;102017.72;5097797;27;45338;-72
2023/04/05 03:30:45;;;;;;;;;22.25;14.75;;;;;8.42;65.94;102025.59;5109336;27;73414;-72
2023/04/05 03:33:10;;;;;;;;;20.00;17.25;;;;;8.32;65.87;102025.22;5115560;27;45332;-71
2023/04/05 03:35:36;;;;;;;;;16.25;14.00;;;;;8.30;65.05;102025.97;5111004;27;47654;-72
2023/04/05 03:38:01;;;;;;;;;18.50;14.00;;;;;8.24;65.00;102021.34;5115420;27;65430;-71
2023/04/05 03:40:26;;;;;;;;;20.25;16.75;;;;;8.14;64.86;102035.88;5109050;27;45567;-72
2023/04/05 03:42:52;;;;;;;;;14.75;11.00;;;;;8.08;64.90;102026.84;5113994;27;58729;-72
2023/04/05 03:45:17;;;;;;;;;19.50;12.00;;;;;8.06;65.14;102033.78;5114086;27;45716;-73
2023/04/05 03:47:43;;;;;;;;;21.25;17.75;;;;;8.04;65.56;102028.47;5110144;27;45324;-72
2023/04/05 03:50:09;;;;;;;;;27.25;15.50;;;;;8.05;65.80;102038.16;5113555;27;46395;-72
2023/04/05 03:52:34;;;;;;;;;18.75;16.75;;;;;8.04;66.41;102032.81;5114809;27;45671;-71
2023/04/05 03:55:00;;;;;;;;;22.25;16.50;;;;;8.04;66.48;102033.75;5101242;27;45388;-71
2023/04/05 03:57:27;;;;;;;;;19.00;15.50;;;;;8.03;66.79;102029.28;5094449;27;45419;-72
2023/04/05 03:59:53;;;;;;;;;21.00;17.50;;;;;8.04;67.00;102041.63;5117337;27;47496;-73
2023/04/05 04:02:18;;;;;;;;;19.25;16.50;;;;;8.03;66.64;102037.19;5117294;27;45291;-72
2023/04/05 04:04:44;;;;;;;;;21.25;19.50;;;;;8.03;66.60;102033.66;5101140;27;45309;-72
2023/04/05 04:07:09;;;;;;;;;18.75;13.25;;;;;8.00;66.43;102025.66;5119724;27;45418;-71
2023/04/05 04:09:35;;;;;;;;;28.75;19.75;;;;;7.96;66.70;102021.09;5116433;27;46372;-72
2023/04/05 04:12:00;;;;;;;;;23.50;18.00;;;;;7.93;66.78;102016.59;5120031;27;45271;-71
2023/04/05 04:14:25;;;;;;;;;21.75;17.00;;;;;7.93;67.09;102008.72;5112765;27;61522;-72
2023/04/05 04:16:51;;;;;;;;;20.25;15.75;;;;;7.96;67.28;102018.47;5119123;27;62562;-72
2023/04/05 04:19:17;;;;;;;;;21.25;19.25;;;;;7.95;67.56;102020.22;5111881;27;45736;-71
2023/04/05 04:21:44;;;;;;;;;29.00;19.50;;;;;7.95;67.64;102025.47;5099668;27;45297;-71
2023/04/05 04:24:15;;;;;;;;;20.50;16.75;;;;;7.92;67.48;102022.69;5118277;27;45396;-72
2023/04/05 04:26:41;;;;;;;;;17.50;14.75;;;;;7.88;67.22;102026.97;5116722;27;45199;-72
2023/04/05 04:29:07;;;;;;;;;18.00;15.25;;;;;7.85;67.49;102025.94;5118361;27;46330;-72
2023/04/05 04:31:32;;;;;;;;;22.25;17.50;;;;;7.83;67.30;102027.59;5115944;27;67759;-71
2023/04/05 04:33:58;;;;;;;;;18.75;14.75;;;;;7.79;67.56;102028.31;5113740;27;45391;-71
2023/04/05 04:36:33;;;;;;;;;19.00;16.50;;;;;7.78;67.53;102018.63;5109897;27;45610;-71
2023/04/05 04:38:59;;;;;;;;;23.50;17.50;;;;;7.74;67.83;102014.97;5111202;27;46438;-72
2023/04/05 04:41:25;;;;;;;;;23.75;15.00;;;;;7.72;67.81;102016.63;5106118;27;45392;-71
2023/04/05 04:43:53;;;;;;;;;23.25;16.00;;;;;7.70;67.88;102017.41;5106628;27;45409;-71
2023/04/05 04:46:19;;;;;;;;;22.50;17.25;;;;;7.66;67.91;102016.38;5106471;27;45610;-70
2023/04/05 04:48:46;;;;;;;;;19.75;19.00;;;;;7.63;68.10;102018.00;5112616;27;46328;-72
2023/04/05 04:51:11;;;;;;;;;23.75;18.75;;;;;7.59;68.19;102015.22;5112364;27;45586;-72
2023/04/05 04:53:36;;;;;;;;;20.75;15.00;;;;;7.56;68.15;102011.56;5108889;27;46720;-71
2023/04/05 04:56:06;;;;;;;;;25.75;19.25;;;;;7.53;68.35;102012.34;5108210;27;45580;-69
2023/04/05 04:58:31;;;;;;;;;22.50;15.75;;;;;7.48;68.29;101998.09;5113832;27;47196;-70
2023/04/05 05:00:58;;;;;;;;;23.25;19.00;;;;;7.49;68.45;102004.25;5117048;27;72145;-73
2023/04/05 05:03:23;;;;;;;;;16.00;15.50;;;;;7.46;68.57;102010.28;5118729;27;45348;-71
2023/04/05 05:05:49;;;;;;;;;19.25;17.00;;;;;7.43;68.60;102002.25;5117699;27;61370;-70
2023/04/05 05:08:15;;;;;;;;;20.25;15.50;;;;;7.41;68.48;102006.56;5113997;27;46372;-72
2023/04/05 05:10:41;;;;;;;;;25.00;18.50;;;;;7.41;68.90;102000.41;5112510;27;45593;-73
2023/04/05 05:13:07;;;;;;;;;25.75;20.75;;;;;7.37;69.04;101993.22;5118443;27;45401;-72
2023/04/05 05:15:32;;;;;;;;;29.00;21.50;;;;;7.35;69.07;102001.94;5118993;27;45465;-72
2023/04/05 05:17:57;;;;;;;;;21.75;18.75;;;;;7.38;69.16;102006.44;5117570;27;46695;-73
2023/04/05 05:20:26;;;;;;;;;25.00;21.50;;;;;7.37;69.09;102003.75;5115888;27;45311;-72
2023/04/05 05:22:51;;;;;;;;;21.75;17.25;;;;;7.35;69.26;102003.69;5065280;22;46512;-72
2023/04/05 05:25:17;;;;;;;;;22.25;17.75;;;;;7.38;69.47;102005.53;5095709;27;61463;-72
2023/04/05 05:27:42;;;;;;;;;27.00;19.50;;;;;7.33;70.27;102002.69;5096320;27;45659;-72
2023/04/05 05:30:08;;;;;;;;;22.50;17.00;;;;;7.37;70.38;101998.50;5086895;27;71155;-72
2023/04/05 05:32:33;;;;;;;;;26.25;17.75;;;;;7.37;70.94;101999.38;5092954;27;45454;-73
2023/04/05 05:34:59;;;;;;;;;25.25;17.50;;;;;7.35;70.76;101996.69;5091257;27;45750;-72
2023/04/05 05:37:31;;;;;;;;;20.75;18.50;;;;;7.34;70.36;102000.13;5092838;27;46593;-72
2023/04/05 05:39:56;;;;;;;;;22.00;18.50;;;;;7.32;70.09;102000.91;5091435;27;45460;-72
2023/04/05 05:42:22;;;;;;;;;22.75;16.50;;;;;7.28;69.92;102013.00;5088005;27;45892;-72
2023/04/05 05:44:47;;;;;;;;;29.75;19.75;;;;;7.28;70.32;102014.75;5088478;27;45571;-71
2023/04/05 05:47:13;;;;;;;;;20.75;19.00;;;;;7.27;71.05;102008.59;5085746;27;46326;-72
2023/04/05 05:49:38;;;;;;;;;29.00;20.75;;;;;7.29;71.88;101995.50;5083635;27;45641;-71
2023/04/05 05:52:04;;;;;;;;;37.50;22.75;;;;;7.35;71.76;102006.31;5092008;27;45758;-71
2023/04/05 05:54:29;;;;;;;;;26.25;20.50;;;;;7.36;71.99;102010.72;5085054;27;45354;-72
2023/04/05 05:56:55;;;;;;;;;30.00;20.25;;;;;7.40;72.28;102014.38;5087285;27;69263;-72
2023/04/05 05:59:21;;;;;;;;;25.25;20.25;;;;;7.40;72.13;102011.75;5083657;27;46670;-73
2023/04/05 06:01:47;;;;;;;;;26.00;21.25;;;;;7.40;71.92;102006.47;5083283;27;45558;-72
2023/04/05 06:04:12;;;;;;;;;32.00;23.00;;;;;7.42;72.16;102015.34;5080064;27;45546;-72
2023/04/05 06:06:39;;;;;;;;;21.00;19.00;;;;;7.42;72.09;102012.72;5089182;27;46215;-72
2023/04/05 06:09:04;;;;;;;;;22.75;18.75;;;;;7.41;72.56;101998.69;5079459;27;45307;-72
2023/04/05 06:11:30;;;;;;;;;28.25;19.25;;;;;7.45;72.84;102007.56;5085369;27;45837;-71
2023/04/05 06:13:55;;;;;;;;;26.50;19.25;;;;;7.50;72.94;102006.03;5088626;27;45334;-72
2023/04/05 06:16:21;;;;;;;;;27.00;18.25;;;;;7.53;73.17;102012.34;5092299;27;46490;-70
2023/04/05 06:18:46;;;;;;;;;28.50;21.25;;;;;7.53;72.99;102009.72;5085708;27;45474;-69
2023/04/05 06:21:12;;;;;;;;;23.75;22.00;;;;;7.56;72.93;102012.47;5090856;27;45449;-69
2023/04/05 06:23:39;;;;;;;;;24.75;22.00;;;;;7.58;73.18;102023.94;5071284;27;45566;-70
2023/04/05 06:26:05;;;;;;;;;27.75;22.75;;;;;7.56;73.28;102025.63;5085446;27;47356;-69
2023/04/05 06:28:30;;;;;;;;;24.75;22.00;;;;;7.60;73.04;102030.16;5081764;27;45426;-69
2023/04/05 06:30:58;;;;;;;;;26.50;22.00;;;;;7.63;73.37;102032.03;5092210;27;51164;-70
2023/04/05 06:33:23;;;;;;;;;24.25;19.00;;;;;7.63;73.43;102025.88;5082721;27;45387;-69
2023/04/05 06:35:48;;;;;;;;;28.25;23.00;;;;;7.66;73.55;102032.13;5088564;27;45610;-69
2023/04/05 06:38:14;;;;;;;;;24.75;22.25;;;;;7.66;73.91;102019.00;5077064;27;46538;-69
2023/04/05 06:40:39;;;;;;;;;31.75;20.50;;;;;7.67;73.96;102019.88;5079946;27;45482;-69
2023/04/05 06:43:05;;;;;;;;;25.50;20.50;;;;;7.69;73.91;102015.59;5079026;27;63606;-70
2023/04/05 06:45:30;;;;;;;;;26.75;23.00;;;;;7.70;73.99;102028.81;5089187;27;45726;-71
2023/04/05 06:47:55;;;;;;;;;23.50;23.00;;;;;7.75;74.47;102026.38;5069517;28;66364;-69
2023/04/05 06:50:21;;;;;;;;;28.25;19.00;;;;;7.76;74.40;102010.66;5093651;27;65132;-69
2023/04/05 06:52:46;;;;;;;;;30.25;20.50;;;;;7.83;74.67;102028.50;5073756;27;45656;-69
2023/04/05 06:55:12;;;;;;;;;32.00;24.00;;;;;7.86;74.70;102025.09;5090197;27;46679;-69
2023/04/05 06:57:37;;;;;;;;;25.75;21.75;;;;;7.93;74.65;102027.13;5075527;27;68948;-70
2023/04/05 07:00:08;;;;;;;;;29.75;19.50;;;;;7.96;74.61;102027.25;5084263;27;45751;-71
2023/04/05 07:02:34;;;;;;;;;25.25;22.50;;;;;8.00;74.69;102028.28;5090667;27;45473;-71
2023/04/05 07:05:04;;;;;;;;;27.00;20.25;;;;;8.09;74.53;102033.91;5083772;27;69888;-71
2023/04/05 07:07:29;;;;;;;;;25.25;21.00;;;;;8.12;74.64;102040.19;5089963;27;45497;-71
2023/04/05 07:09:55;;;;;;;;;24.25;23.25;;;;;8.16;74.81;102050.84;5082139;27;45425;-71
2023/04/05 07:12:20;;;;;;;;;27.75;22.75;;;;;8.18;74.39;102039.53;5093918;27;45475;-71
2023/04/05 07:14:45;;;;;;;;;34.25;27.75;;;;;8.16;74.68;102043.84;5095970;27;49969;-70
2023/04/05 07:17:11;;;;;;;;;26.00;19.75;;;;;8.20;74.64;102045.75;5094464;27;53287;-70
2023/04/05 07:19:36;;;;;;;;;28.50;25.50;;;;;8.24;74.57;102041.50;5091523;27;60202;-70
2023/04/05 07:22:01;;;;;;;;;30.25;21.50;;;;;8.29;74.75;102045.22;5088071;27;59963;-70
2023/04/05 07:24:27;;;;;;;;;31.75;26.75;;;;;8.32;75.14;102041.00;5073547;28;57075;-71
2023/04/05 07:26:52;;;;;;;;;41.00;26.00;;;;;8.41;74.53;102051.00;5090968;27;69198;-71
2023/04/05 07:29:17;;;;;;;;;25.00;20.50;;;;;8.46;74.32;102053.81;5095055;27;49405;-71
2023/04/05 07:31:43;;;;;;;;;27.50;20.75;;;;;8.49;73.99;102054.84;5097842;27;45481;-70
2023/04/05 07:34:08;;;;;;;;;23.25;19.25;;;;;8.49;74.06;102040.78;5096442;27;46581;-70
2023/04/05 07:36:34;;;;;;;;;26.75;19.50;;;;;8.53;73.60;102053.25;5086933;27;45484;-71
2023/04/05 07:38:59;;;;;;;;;32.00;25.25;;;;;8.54;73.82;102042.75;5088352;27;45471;-71
2023/04/05 07:41:26;;;;;;;;;29.00;25.50;;;;;8.57;73.86;102044.59;5095226;27;45531;-72
2023/04/05 07:43:52;;;;;;;;;27.50;22.75;;;;;8.62;73.73;102050.94;5092849;27;45845;-71
2023/04/05 07:46:17;;;;;;;;;25.25;24.00;;;;;8.65;73.45;102051.97;5093231;27;45295;-71
2023/04/05 07:48:42;;;;;;;;;29.75;21.75;;;;;8.65;73.06;102035.28;5097246;27;45343;-69
2023/04/05 07:51:09;;;;;;;;;32.50;23.25;;;;;8.72;73.61;102044.28;5076864;27;56079;-71
2023/04/05 07:53:35;;;;;;;;;31.50;23.25;;;;;8.69;73.29;102034.56;5084430;27;46758;-71
2023/04/05 07:56:08;;;;;;;;;22.00;21.25;;;;;8.73;73.15;102028.53;5092022;27;45512;-71
2023/04/05 07:58:34;;;;;;;;;28.25;21.75;;;;;8.79;72.92;102041.03;5085914;27;45228;-71
2023/04/05 08:01:03;;;;;;;;;25.00;21.50;;;;;8.77;72.96;102027.81;5094258;27;45529;-71
2023/04/05 08:03:29;;;;;;;;;25.00;21.25;;;;;8.81;72.48;102021.84;5095685;27;47213;-71
2023/04/05 08:05:55;;;;;;;;;27.25;19.00;;;;;8.83;72.33;102025.41;5093123;27;47075;-71
2023/04/05 08:08:21;;;;;;;;;31.25;21.50;;;;;8.89;73.07;102030.94;5096163;27;45456;-71
2023/04/05 08:10:46;;;;;;;;;34.50;23.25;;;;;9.00;72.79;102038.31;5093698;27;45483;-71
2023/04/05 08:13:12;;;;;;;;;33.50;30.00;;;;;9.01;72.96;102019.94;5089986;27;65544;-71
2023/04/05 08:15:38;;;;;;;;;29.50;23.75;;;;;9.08;72.92;102021.94;5091337;27;45367;-71
2023/04/05 08:18:04;;;;;;;;;25.25;20.25;;;;;9.14;72.50;102026.53;5089947;27;45442;-71
2023/04/05 08:20:29;;;;;;;;;28.75;23.00;;;;;9.18;72.20;102026.72;5091170;27;60817;-72
2023/04/05 08:22:54;;;;;;;;;31.00;23.25;;;;;9.23;72.24;102032.16;5085858;27;45606;-71
2023/04/05 08:25:20;;;;;;;;;31.50;22.75;;;;;9.25;72.12;102030.47;5094171;27;45564;-71
2023/04/05 08:27:45;;;;;;;;;28.00;22.75;;;;;9.31;71.77;102035.03;5091064;27;45476;-71
2023/04/05 08:30:11;;;;;;;;;29.25;20.50;;;;;9.35;71.08;102036.97;5083850;27;55980;-71
2023/04/05 08:32:36;;;;;;;;;32.00;22.50;;;;;9.39;70.84;102039.75;5083406;27;47284;-71
2023/04/05 08:35:02;;;;;;;;;22.75;20.75;;;;;9.44;70.69;102034.66;5086211;27;45386;-71
2023/04/05 08:37:27;;;;;;;;;21.00;18.25;;;;;9.48;70.34;102035.63;5087248;27;45488;-71
2023/04/05 08:39:52;;;;;;;;;36.75;19.00;;;;;9.52;70.21;102037.53;5085444;27;46329;-71
2023/04/05 08:42:23;;;;;;;;;26.75;22.00;;;;;9.55;69.78;102040.28;5085308;27;69056;-71
2023/04/05 08:44:51;;;;;;;;;22.00;18.25;;;;;9.62;69.18;102042.28;5068154;27;45536;-71
2023/04/05 08:47:18;;;;;;;;;27.00;20.25;;;;;9.63;68.92;102039.69;5088709;27;45887;-71
2023/04/05 08:49:44;;;;;;;;;18.00;16.00;;;;;9.68;68.31;102035.47;5093426;27;45533;-73
2023/04/05 08:52:09;;;;;;;;;26.75;23.00;;;;;9.76;68.42;102041.03;5091523;27;46403;-72
2023/04/05 08:54:35;;;;;;;;;26.50;21.25;;;;;9.84;67.98;102038.63;5092136;27;63797;-72
2023/04/05 08:57:04;;;;;;;;;29.00;22.75;;;;;9.89;67.88;102039.69;5094273;27;59424;-71
2023/04/05 08:59:33;;;;;;;;;35.50;23.25;;;;;9.93;67.37;102033.66;5093593;27;45628;-71
2023/04/05 09:02:00;;;;;;;;;27.75;20.75;;;;;9.94;66.86;102024.91;5087542;27;46620;-72
2023/04/05 09:04:30;;;;;;;;;25.25;20.75;;;;;10.02;66.50;102033.97;5081197;27;45457;-72
2023/04/05 09:06:57;;;;;;;;;30.00;24.50;;;;;10.07;66.31;102037.66;5071963;27;45358;-72
2023/04/05 09:09:23;;;;;;;;;24.25;19.50;;;;;10.11;66.35;102036.00;5095816;27;45373;-72
2023/04/05 09:11:49;;;;;;;;;21.75;20.50;;;;;10.18;66.32;102038.91;5096659;27;46563;-71
2023/04/05 09:14:15;;;;;;;;;26.50;23.75;;;;;10.26;66.06;102036.53;5078808;27;45978;-70
2023/04/05 09:16:41;;;;;;;;;28.50;22.25;;;;;10.34;65.88;102031.50;5097088;27;45487;-71
2023/04/05 09:19:08;;;;;;;;;20.25;18.75;;;;;10.41;65.96;102022.91;5097309;27;45312;-70
2023/04/05 09:21:59;;;;;;;;;27.00;22.00;;;;;10.48;65.94;102025.78;5096849;27;46390;-71
2023/04/05 09:24:40;;;;;;;;;23.25;20.50;;;;;10.54;65.55;102022.41;5097287;27;45421;-68
2023/04/05 09:27:16;;;;;;;;;21.00;19.50;;;;;10.64;65.18;102023.59;5094704;27;45585;-69
2023/04/05 09:29:46;;;;;;;;;26.50;25.50;;;;;10.71;64.62;102028.22;5086802;27;46217;-68
2023/04/05 09:32:12;;;;;;;;;23.50;17.25;;;;;10.77;64.62;102024.88;5094637;27;46558;-69
2023/04/05 09:34:39;;;;;;;;;23.50;18.50;;;;;10.83;64.44;102023.28;5088575;27;45342;-68
2023/04/05 09:37:30;;;;;;;;;22.50;19.50;;;;;10.91;64.04;102023.50;5084375;27;45453;-69
2023/04/05 09:40:03;;;;;;;;;24.75;21.75;;;;;10.94;63.49;102008.66;5076461;27;62878;-69
2023/04/05 09:42:31;;;;;;;;;24.00;19.75;;;;;10.98;63.31;102015.81;5095129;27;45505;-68
2023/04/05 09:45:00;;;;;;;;;24.25;19.50;;;;;11.03;62.92;102013.31;5075401;27;45409;-69
2023/04/05 09:47:29;;;;;;;;;34.25;21.50;;;;;11.10;62.66;102012.63;5090564;27;45587;-68
2023/04/05 09:49:56;;;;;;;;;22.75;19.00;;;;;11.14;62.61;102009.22;5090728;27;45369;-68
2023/04/05 09:52:24;;;;;;;;;22.50;18.25;;;;;11.20;62.35;101998.78;5090140;27;45448;-68
2023/04/05 09:54:51;;;;;;;;;24.00;21.00;;;;;11.29;62.03;101998.13;5084663;27;45561;-68
2023/04/05 09:57:17;;;;;;;;;21.50;18.75;;;;;11.34;61.63;101999.16;5090159;27;45488;-68
2023/04/05 09:59:46;;;;;;;;;22.00;17.25;;;;;11.38;61.33;102008.97;5068547;27;45346;-68
2023/04/05 10:02:11;;;;;;;;;22.75;19.25;;;;;11.42;60.81;101997.63;5067108;27;47658;-69
2023/04/05 10:04:39;;;;;;;;;18.50;16.50;;;;;11.48;60.91;101995.13;5093047;27;45749;-69
2023/04/05 10:07:06;;;;;;;;;25.00;22.00;;;;;11.55;60.52;101997.06;5092332;27;45456;-71
2023/04/05 10:09:31;;;;;;;;;25.25;19.75;;;;;11.66;60.06;101999.09;5088959;27;45543;-69
2023/04/05 10:11:57;;;;;;;;;24.25;21.00;;;;;11.73;60.26;102001.94;5089214;27;59272;-70
2023/04/05 10:14:22;;;;;;;;;25.25;18.75;;;;;11.79;59.98;101991.50;5071274;27;62351;-69
2023/04/05 10:17:24;;;;;;;;;24.00;22.25;;;;;11.92;59.93;101994.47;5073712;27;45414;-69
2023/04/05 10:20:08;;;;;;;;;21.00;17.50;;;;;12.02;59.52;102000.03;5090012;27;45613;-70
2023/04/05 10:22:40;;;;;;;;;23.50;19.25;;;;;12.11;59.10;101983.47;5089565;27;45686;-70
2023/04/05 10:25:25;;;;;;;;;24.50;21.00;;;;;12.18;58.49;101992.44;5079149;27;45338;-70
2023/04/05 10:27:57;;;;;;;;;21.50;18.75;;;;;12.19;57.53;101976.59;5096094;27;45583;-69
2023/04/05 10:30:31;;;;;;;;;22.25;19.75;;;;;12.26;56.55;101983.81;5066629;27;45390;-69
2023/04/05 10:33:33;;;;;;;;;20.50;17.75;;;;;12.30;56.66;101971.53;5092765;27;46255;-70
2023/04/05 10:36:20;;;;;;;;;18.00;16.25;;;;;12.37;56.51;101975.22;5067078;27;45476;-70
2023/04/05 10:39:28;;;;;;;;;19.50;16.00;;;;;12.44;55.93;101967.44;5077825;27;45560;-69
2023/04/05 10:41:56;;;;;;;;;22.00;18.75;;;;;12.47;55.88;101961.31;4991823;28;45690;-69
2023/04/05 10:44:22;;;;;;;;;21.25;17.25;;;;;12.55;55.68;101959.72;4989731;28;46677;-70
2023/04/05 10:46:47;;;;;;;;;20.50;16.00;;;;;12.59;55.63;101958.94;5037248;27;68611;-70
2023/04/05 10:49:34;;;;;;;;;24.00;18.75;;;;;12.63;54.90;101950.19;5075731;27;65150;-69
2023/04/05 10:52:00;;;;;;;;;17.75;16.50;;;;;12.69;54.16;101952.97;5088424;27;45283;-70
2023/04/05 10:54:26;;;;;;;;;27.25;17.25;;;;;12.75;54.09;101942.47;5093130;27;46798;-69
2023/04/05 10:56:52;;;;;;;;;23.75;22.50;;;;;12.81;53.77;101939.94;5076779;27;45389;-69
2023/04/05 10:59:19;;;;;;;;;20.25;16.25;;;;;12.85;53.78;101939.13;5084494;27;61940;-69
2023/04/05 11:01:45;;;;;;;;;28.25;20.75;;;;;12.96;53.73;101942.00;5069161;27;45451;-69
2023/04/05 11:04:12;;;;;;;;;22.25;16.50;;;;;13.03;53.85;101946.53;5093833;27;48035;-69
2023/04/05 11:06:37;;;;;;;;;17.75;15.25;;;;;13.13;54.00;101939.66;5086455;27;45245;-69
2023/04/05 11:09:05;;;;;;;;;22.75;16.50;;;;;13.24;53.77;101953.16;5084103;27;45461;-70
2023/04/05 11:11:37;;;;;;;;;19.50;17.25;;;;;13.27;53.20;101942.59;5086862;27;45433;-69
2023/04/05 11:14:22;;;;;;;;;14.25;14.00;;;;;13.33;52.47;101942.72;5091174;27;46593;-69
2023/04/05 11:16:54;;;;;;;;;18.00;18.00;;;;;13.36;51.69;101940.09;5093093;27;45524;-70